sensor_id;sensor_type;location;lat;lon;timestamp;pressure;altitude;pressure_sealevel;temperature;humidity
75650;BME280;64245;51.282;22.494;2023-04-30T00:00:12;98896.06;;;5.75;79.52
75650;BME280;64245;51.282;22.494;2023-04-30T00:02:57;98887.13;;;5.54;80.39
75650;BME280;64245;51.282;22.494;2023-04-30T00:05:23;98896.69;;;5.57;79.64
75650;BME280;64245;51.282;22.494;2023-04-30T00:07:48;98895.38;;;5.51;82.04
75650;BME280;64245;51.282;22.494;2023-04-30T00:10:14;98901.06;;;5.46;82.75
75650;BME280;64245;51.282;22.494;2023-04-30T00:12:40;98894.03;;;5.34;83.27
75650;BME280;64245;51.282;22.494;2023-04-30T00:15:06;98907.13;;;5.48;83.93
75650;BME280;64245;51.282;22.494;2023-04-30T00:17:31;98891.72;;;5.18;84.53
75650;BME280;64245;51.282;22.494;2023-04-30T00:19:57;98887.94;;;5.10;84.46
75650;BME280;64245;51.282;22.494;2023-04-30T00:22:23;98905.44;;;5.25;83.71
75650;BME280;64245;51.282;22.494;2023-04-30T00:24:48;98882.13;;;5.16;83.84
75650;BME280;64245;51.282;22.494;2023-04-30T00:27:14;98895.34;;;5.40;83.30
75650;BME280;64245;51.282;22.494;2023-04-30T00:29:40;98893.81;;;5.37;84.27
75650;BME280;64245;51.282;22.494;2023-04-30T00:32:05;98883.25;;;5.36;83.57
75650;BME280;64245;51.282;22.494;2023-04-30T00:34:31;98912.47;;;5.48;82.88
75650;BME280;64245;51.282;22.494;2023-04-30T00:36:56;98908.47;;;5.54;81.34
75650;BME280;64245;51.282;22.494;2023-04-30T00:39:22;98920.25;;;5.74;81.48
75650;BME280;64245;51.282;22.494;2023-04-30T00:41:48;98909.66;;;5.61;83.27
75650;BME280;64245;51.282;22.494;2023-04-30T00:44:13;98884.69;;;5.51;82.49
75650;BME280;64245;51.282;22.494;2023-04-30T00:46:39;98899.38;;;5.45;83.18
75650;BME280;64245;51.282;22.494;2023-04-30T00:49:05;98888.81;;;5.33;82.68
75650;BME280;64245;51.282;22.494;2023-04-30T00:51:31;98913.81;;;5.43;84.64
75650;BME280;64245;51.282;22.494;2023-04-30T00:54:01;98921.09;;;5.52;82.39
75650;BME280;64245;51.282;22.494;2023-04-30T00:56:28;98918.31;;;5.53;83.79
75650;BME280;64245;51.282;22.494;2023-04-30T00:58:57;98909.09;;;5.58;83.62
75650;BME280;64245;51.282;22.494;2023-04-30T01:01:27;98902.13;;;5.66;82.11
75650;BME280;64245;51.282;22.494;2023-04-30T01:03:56;98913.28;;;5.82;81.82
75650;BME280;64245;51.282;22.494;2023-04-30T01:06:22;98895.31;;;5.84;82.75
75650;BME280;64245;51.282;22.494;2023-04-30T01:08:49;98889.75;;;5.76;81.66
75650;BME280;64245;51.282;22.494;2023-04-30T01:16:51;98883.63;;;6.08;81.96
75650;BME280;64245;51.282;22.494;2023-04-30T01:21:58;98907.75;;;6.29;81.07
75650;BME280;64245;51.282;22.494;2023-04-30T01:24:42;98901.81;;;6.25;82.37
75650;BME280;64245;51.282;22.494;2023-04-30T01:27:23;98902.72;;;6.35;81.03
75650;BME280;64245;51.282;22.494;2023-04-30T01:29:55;98887.09;;;6.19;82.85
75650;BME280;64245;51.282;22.494;2023-04-30T01:32:21;98898.66;;;6.20;82.90
75650;BME280;64245;51.282;22.494;2023-04-30T01:34:47;98878.03;;;6.11;82.24
75650;BME280;64245;51.282;22.494;2023-04-30T01:37:22;98879.69;;;6.23;81.19
75650;BME280;64245;51.282;22.494;2023-04-30T01:42:45;98903.38;;;6.28;83.42
75650;BME280;64245;51.282;22.494;2023-04-30T01:45:41;98871.00;;;6.10;83.71
75650;BME280;64245;51.282;22.494;2023-04-30T01:48:21;98893.31;;;6.20;83.04
75650;BME280;64245;51.282;22.494;2023-04-30T01:51:07;98871.97;;;6.09;80.12
75650;BME280;64245;51.282;22.494;2023-04-30T01:53:41;98888.94;;;6.19;80.23
75650;BME280;64245;51.282;22.494;2023-04-30T01:56:15;98900.69;;;6.28;82.07
75650;BME280;64245;51.282;22.494;2023-04-30T01:58:44;98905.56;;;6.34;78.57
75650;BME280;64245;51.282;22.494;2023-04-30T02:01:32;98905.38;;;6.35;76.66
75650;BME280;64245;51.282;22.494;2023-04-30T02:03:58;98880.75;;;6.32;79.11
75650;BME280;64245;51.282;22.494;2023-04-30T02:06:25;98901.34;;;6.52;78.44
75650;BME280;64245;51.282;22.494;2023-04-30T02:08:57;98893.56;;;6.49;80.03
75650;BME280;64245;51.282;22.494;2023-04-30T02:11:28;98898.47;;;6.65;79.80
75650;BME280;64245;51.282;22.494;2023-04-30T02:13:53;98904.72;;;6.75;80.15
75650;BME280;64245;51.282;22.494;2023-04-30T02:16:19;98897.28;;;6.78;74.99
75650;BME280;64245;51.282;22.494;2023-04-30T02:18:45;98887.81;;;6.74;77.15
75650;BME280;64245;51.282;22.494;2023-04-30T02:21:11;98892.91;;;6.77;77.40
75650;BME280;64245;51.282;22.494;2023-04-30T02:23:36;98903.97;;;6.84;76.87
75650;BME280;64245;51.282;22.494;2023-04-30T02:26:02;98899.19;;;6.87;75.22
75650;BME280;64245;51.282;22.494;2023-04-30T02:28:28;98906.50;;;6.85;76.17
75650;BME280;64245;51.282;22.494;2023-04-30T02:30:54;98891.44;;;6.84;76.89
75650;BME280;64245;51.282;22.494;2023-04-30T02:33:19;98901.94;;;6.97;77.06
75650;BME280;64245;51.282;22.494;2023-04-30T02:35:45;98887.91;;;6.84;78.57
75650;BME280;64245;51.282;22.494;2023-04-30T02:38:11;98897.25;;;6.89;78.55
75650;BME280;64245;51.282;22.494;2023-04-30T02:40:36;98898.84;;;7.02;81.94
75650;BME280;64245;51.282;22.494;2023-04-30T02:43:02;98901.75;;;7.10;81.02
75650;BME280;64245;51.282;22.494;2023-04-30T02:45:28;98897.88;;;7.03;80.01
75650;BME280;64245;51.282;22.494;2023-04-30T02:47:55;98908.25;;;7.17;74.01
75650;BME280;64245;51.282;22.494;2023-04-30T02:50:21;98911.50;;;7.20;73.20
75650;BME280;64245;51.282;22.494;2023-04-30T02:52:46;98909.81;;;7.19;75.88
75650;BME280;64245;51.282;22.494;2023-04-30T02:55:12;98901.50;;;7.22;78.56
75650;BME280;64245;51.282;22.494;2023-04-30T02:57:37;98908.06;;;7.30;78.91
75650;BME280;64245;51.282;22.494;2023-04-30T03:00:04;98875.34;;;7.05;77.29
75650;BME280;64245;51.282;22.494;2023-04-30T03:02:30;98898.19;;;7.30;78.04
75650;BME280;64245;51.282;22.494;2023-04-30T03:04:55;98912.69;;;7.27;80.55
75650;BME280;64245;51.282;22.494;2023-04-30T03:07:21;98892.00;;;7.09;81.81
75650;BME280;64245;51.282;22.494;2023-04-30T03:09:47;98894.25;;;7.13;81.26
75650;BME280;64245;51.282;22.494;2023-04-30T03:12:12;98898.00;;;7.22;78.15
75650;BME280;64245;51.282;22.494;2023-04-30T03:14:40;98882.88;;;7.11;79.77
75650;BME280;64245;51.282;22.494;2023-04-30T03:17:05;98905.91;;;7.23;78.92
75650;BME280;64245;51.282;22.494;2023-04-30T03:19:31;98896.34;;;7.31;80.34
75650;BME280;64245;51.282;22.494;2023-04-30T03:21:57;98900.44;;;7.35;81.56
75650;BME280;64245;51.282;22.494;2023-04-30T03:24:23;98901.41;;;7.34;80.33
75650;BME280;64245;51.282;22.494;2023-04-30T03:26:49;98920.69;;;7.48;77.27
75650;BME280;64245;51.282;22.494;2023-04-30T03:29:15;98906.47;;;7.57;78.18
75650;BME280;64245;51.282;22.494;2023-04-30T03:31:41;98910.59;;;7.61;77.99
75650;BME280;64245;51.282;22.494;2023-04-30T03:34:07;98907.06;;;7.61;78.77
75650;BME280;64245;51.282;22.494;2023-04-30T03:36:33;98920.19;;;7.64;77.70
75650;BME280;64245;51.282;22.494;2023-04-30T03:39:00;98914.81;;;7.64;77.81
75650;BME280;64245;51.282;22.494;2023-04-30T03:41:25;98898.56;;;7.56;77.33
75650;BME280;64245;51.282;22.494;2023-04-30T03:43:51;98899.91;;;7.41;80.21
75650;BME280;64245;51.282;22.494;2023-04-30T03:46:17;98908.78;;;7.41;82.34
75650;BME280;64245;51.282;22.494;2023-04-30T03:48:42;98900.38;;;7.46;79.91
75650;BME280;64245;51.282;22.494;2023-04-30T03:51:09;98908.03;;;7.60;79.60
75650;BME280;64245;51.282;22.494;2023-04-30T03:53:35;98917.44;;;7.85;79.50
75650;BME280;64245;51.282;22.494;2023-04-30T03:56:01;98918.63;;;7.71;78.29
75650;BME280;64245;51.282;22.494;2023-04-30T03:58:27;98927.91;;;7.88;79.48
75650;BME280;64245;51.282;22.494;2023-04-30T04:00:53;98933.41;;;7.96;79.26
75650;BME280;64245;51.282;22.494;2023-04-30T04:03:19;98926.75;;;7.90;77.60
75650;BME280;64245;51.282;22.494;2023-04-30T04:05:44;98920.28;;;7.93;77.79
75650;BME280;64245;51.282;22.494;2023-04-30T04:08:11;98926.22;;;7.96;80.01
75650;BME280;64245;51.282;22.494;2023-04-30T04:10:37;98921.03;;;8.05;77.44
75650;BME280;64245;51.282;22.494;2023-04-30T04:13:04;98917.19;;;7.97;79.48
75650;BME280;64245;51.282;22.494;2023-04-30T04:15:30;98928.50;;;8.11;79.52
75650;BME280;64245;51.282;22.494;2023-04-30T04:17:56;98912.41;;;8.11;77.75
75650;BME280;64245;51.282;22.494;2023-04-30T04:20:22;98914.53;;;8.17;75.77
75650;BME280;64245;51.282;22.494;2023-04-30T04:22:48;98931.50;;;8.27;79.69
75650;BME280;64245;51.282;22.494;2023-04-30T04:25:13;98940.31;;;8.39;77.36
75650;BME280;64245;51.282;22.494;2023-04-30T04:27:39;98918.53;;;8.32;79.34
75650;BME280;64245;51.282;22.494;2023-04-30T04:30:05;98945.25;;;8.43;78.42
75650;BME280;64245;51.282;22.494;2023-04-30T04:32:31;98937.06;;;8.45;78.47
75650;BME280;64245;51.282;22.494;2023-04-30T04:34:57;98950.78;;;8.42;81.25
75650;BME280;64245;51.282;22.494;2023-04-30T04:37:23;98936.50;;;8.51;77.18
75650;BME280;64245;51.282;22.494;2023-04-30T04:39:49;98942.84;;;8.50;74.42
75650;BME280;64245;51.282;22.494;2023-04-30T04:42:15;98925.78;;;8.60;72.66
75650;BME280;64245;51.282;22.494;2023-04-30T04:44:42;98938.78;;;8.65;74.17
75650;BME280;64245;51.282;22.494;2023-04-30T04:47:08;98960.53;;;8.81;73.99
75650;BME280;64245;51.282;22.494;2023-04-30T04:49:34;98937.63;;;8.68;72.25
75650;BME280;64245;51.282;22.494;2023-04-30T04:52:00;98950.34;;;9.04;70.84
75650;BME280;64245;51.282;22.494;2023-04-30T04:54:26;98952.00;;;9.24;68.34
75650;BME280;64245;51.282;22.494;2023-04-30T04:56:52;98972.59;;;9.43;69.68
75650;BME280;64245;51.282;22.494;2023-04-30T04:59:17;98956.94;;;9.39;69.47
75650;BME280;64245;51.282;22.494;2023-04-30T05:01:43;98973.16;;;9.47;68.76
75650;BME280;64245;51.282;22.494;2023-04-30T05:04:09;98969.38;;;9.40;68.56
75650;BME280;64245;51.282;22.494;2023-04-30T05:06:35;98973.03;;;9.48;69.34
75650;BME280;64245;51.282;22.494;2023-04-30T05:09:01;98957.78;;;9.39;71.20
75650;BME280;64245;51.282;22.494;2023-04-30T05:11:27;98969.88;;;9.62;71.27
75650;BME280;64245;51.282;22.494;2023-04-30T05:13:52;98974.88;;;9.85;74.58
75650;BME280;64245;51.282;22.494;2023-04-30T05:16:18;98976.44;;;9.87;73.90
75650;BME280;64245;51.282;22.494;2023-04-30T05:18:44;98945.50;;;9.74;70.22
75650;BME280;64245;51.282;22.494;2023-04-30T05:21:10;98973.59;;;9.89;71.31
75650;BME280;64245;51.282;22.494;2023-04-30T05:23:35;98971.47;;;9.92;75.32
75650;BME280;64245;51.282;22.494;2023-04-30T05:26:01;98971.63;;;9.91;71.90
75650;BME280;64245;51.282;22.494;2023-04-30T05:28:27;98949.03;;;10.01;74.05
75650;BME280;64245;51.282;22.494;2023-04-30T05:30:53;98962.03;;;10.06;75.56
75650;BME280;64245;51.282;22.494;2023-04-30T05:33:18;98979.59;;;10.20;72.11
75650;BME280;64245;51.282;22.494;2023-04-30T05:35:44;98983.81;;;10.22;72.76
75650;BME280;64245;51.282;22.494;2023-04-30T05:38:10;98979.00;;;10.44;71.30
75650;BME280;64245;51.282;22.494;2023-04-30T05:40:36;98982.66;;;10.52;71.82
75650;BME280;64245;51.282;22.494;2023-04-30T05:43:01;98975.56;;;10.51;71.33
75650;BME280;64245;51.282;22.494;2023-04-30T05:45:27;98973.34;;;10.64;72.64
75650;BME280;64245;51.282;22.494;2023-04-30T05:47:52;98969.72;;;10.56;70.42
75650;BME280;64245;51.282;22.494;2023-04-30T05:50:18;98978.44;;;10.67;72.94
75650;BME280;64245;51.282;22.494;2023-04-30T05:52:43;98989.59;;;10.72;72.20
75650;BME280;64245;51.282;22.494;2023-04-30T05:55:09;98987.06;;;10.71;71.79
75650;BME280;64245;51.282;22.494;2023-04-30T05:57:35;98984.13;;;10.82;71.05
75650;BME280;64245;51.282;22.494;2023-04-30T06:00:01;98990.75;;;10.88;71.31
75650;BME280;64245;51.282;22.494;2023-04-30T06:02:29;98985.34;;;11.05;70.62
75650;BME280;64245;51.282;22.494;2023-04-30T06:04:55;98981.41;;;11.18;71.48
75650;BME280;64245;51.282;22.494;2023-04-30T06:07:20;99005.22;;;11.22;72.45
75650;BME280;64245;51.282;22.494;2023-04-30T06:09:46;98989.19;;;11.21;72.37
75650;BME280;64245;51.282;22.494;2023-04-30T06:12:12;99013.22;;;11.58;72.24
75650;BME280;64245;51.282;22.494;2023-04-30T06:14:37;98989.28;;;11.55;73.29
75650;BME280;64245;51.282;22.494;2023-04-30T06:17:03;98999.31;;;11.88;72.87
75650;BME280;64245;51.282;22.494;2023-04-30T06:19:29;99007.19;;;12.16;71.94
75650;BME280;64245;51.282;22.494;2023-04-30T06:21:55;98988.88;;;11.67;73.13
75650;BME280;64245;51.282;22.494;2023-04-30T06:24:20;99006.94;;;11.93;72.88
75650;BME280;64245;51.282;22.494;2023-04-30T06:26:46;98997.50;;;11.71;73.76
75650;BME280;64245;51.282;22.494;2023-04-30T06:29:12;98987.31;;;11.39;74.48
75650;BME280;64245;51.282;22.494;2023-04-30T06:31:37;98992.72;;;11.21;74.21
75650;BME280;64245;51.282;22.494;2023-04-30T06:34:03;99004.31;;;11.14;75.21
75650;BME280;64245;51.282;22.494;2023-04-30T06:36:28;99003.13;;;11.34;74.37
75650;BME280;64245;51.282;22.494;2023-04-30T06:38:54;99018.94;;;11.55;75.71
75650;BME280;64245;51.282;22.494;2023-04-30T06:41:20;99007.34;;;11.54;75.58
75650;BME280;64245;51.282;22.494;2023-04-30T06:43:45;99022.25;;;11.66;75.87
75650;BME280;64245;51.282;22.494;2023-04-30T06:46:11;99009.88;;;11.82;76.41
75650;BME280;64245;51.282;22.494;2023-04-30T06:48:37;99014.50;;;11.46;79.45
75650;BME280;64245;51.282;22.494;2023-04-30T06:51:02;99037.34;;;11.59;79.47
75650;BME280;64245;51.282;22.494;2023-04-30T06:53:28;99018.94;;;11.55;79.35
75650;BME280;64245;51.282;22.494;2023-04-30T06:55:54;99014.94;;;11.59;79.49
75650;BME280;64245;51.282;22.494;2023-04-30T06:58:20;99038.09;;;11.87;80.18
75650;BME280;64245;51.282;22.494;2023-04-30T07:00:45;99030.03;;;11.95;79.30
75650;BME280;64245;51.282;22.494;2023-04-30T07:03:11;99028.34;;;11.68;79.67
75650;BME280;64245;51.282;22.494;2023-04-30T07:05:37;99028.25;;;11.78;79.73
75650;BME280;64245;51.282;22.494;2023-04-30T07:08:03;99036.22;;;12.14;78.38
75650;BME280;64245;51.282;22.494;2023-04-30T07:10:29;99033.81;;;12.02;78.90
75650;BME280;64245;51.282;22.494;2023-04-30T07:12:56;99040.91;;;12.03;79.97
75650;BME280;64245;51.282;22.494;2023-04-30T07:15:21;99045.31;;;12.13;79.14
75650;BME280;64245;51.282;22.494;2023-04-30T07:17:47;99034.41;;;12.22;78.66
75650;BME280;64245;51.282;22.494;2023-04-30T07:20:13;99037.44;;;12.19;78.38
75650;BME280;64245;51.282;22.494;2023-04-30T07:22:40;99045.75;;;12.26;79.14
75650;BME280;64245;51.282;22.494;2023-04-30T07:25:08;99044.97;;;12.41;77.69
75650;BME280;64245;51.282;22.494;2023-04-30T07:27:34;99054.28;;;12.47;77.99
75650;BME280;64245;51.282;22.494;2023-04-30T07:30:00;99054.91;;;12.07;79.60
75650;BME280;64245;51.282;22.494;2023-04-30T07:32:25;99057.47;;;11.65;80.39
75650;BME280;64245;51.282;22.494;2023-04-30T07:34:52;99063.03;;;11.46;81.70
75650;BME280;64245;51.282;22.494;2023-04-30T07:37:18;99072.53;;;11.50;82.99
75650;BME280;64245;51.282;22.494;2023-04-30T07:39:44;99063.81;;;11.20;83.88
75650;BME280;64245;51.282;22.494;2023-04-30T07:42:10;99076.50;;;10.92;86.59
75650;BME280;64245;51.282;22.494;2023-04-30T07:44:35;99063.84;;;10.57;90.30
75650;BME280;64245;51.282;22.494;2023-04-30T07:47:01;99079.09;;;10.39;92.34
75650;BME280;64245;51.282;22.494;2023-04-30T07:49:27;99090.84;;;10.38;94.19
75650;BME280;64245;51.282;22.494;2023-04-30T07:51:53;99066.53;;;10.11;95.33
75650;BME280;64245;51.282;22.494;2023-04-30T07:54:18;99082.13;;;10.17;97.55
75650;BME280;64245;51.282;22.494;2023-04-30T07:56:44;99066.66;;;9.72;96.95
75650;BME280;64245;51.282;22.494;2023-04-30T07:59:10;99095.81;;;9.67;98.93
75650;BME280;64245;51.282;22.494;2023-04-30T08:01:35;99102.16;;;9.85;99.26
75650;BME280;64245;51.282;22.494;2023-04-30T08:04:01;99098.47;;;9.86;99.02
75650;BME280;64245;51.282;22.494;2023-04-30T08:06:27;99100.13;;;10.07;97.61
75650;BME280;64245;51.282;22.494;2023-04-30T08:08:53;99102.00;;;9.87;97.36
75650;BME280;64245;51.282;22.494;2023-04-30T08:11:18;99100.44;;;9.84;98.38
75650;BME280;64245;51.282;22.494;2023-04-30T08:13:44;99104.59;;;9.79;97.04
75650;BME280;64245;51.282;22.494;2023-04-30T08:16:11;99106.69;;;9.85;97.00
75650;BME280;64245;51.282;22.494;2023-04-30T08:18:36;99110.34;;;9.84;96.98
75650;BME280;64245;51.282;22.494;2023-04-30T08:21:04;99123.09;;;9.82;96.01
75650;BME280;64245;51.282;22.494;2023-04-30T08:23:30;99125.66;;;9.83;97.04
75650;BME280;64245;51.282;22.494;2023-04-30T08:25:56;99127.06;;;9.87;97.54
75650;BME280;64245;51.282;22.494;2023-04-30T08:28:22;99137.50;;;10.10;97.33
75650;BME280;64245;51.282;22.494;2023-04-30T08:30:47;99154.34;;;10.02;97.04
75650;BME280;64245;51.282;22.494;2023-04-30T08:33:13;99145.22;;;9.76;97.48
75650;BME280;64245;51.282;22.494;2023-04-30T08:35:39;99130.19;;;9.73;97.27
75650;BME280;64245;51.282;22.494;2023-04-30T08:38:04;99126.53;;;9.74;98.21
75650;BME280;64245;51.282;22.494;2023-04-30T08:40:34;99142.91;;;10.00;97.71
75650;BME280;64245;51.282;22.494;2023-04-30T08:43:05;99129.19;;;9.93;97.16
75650;BME280;64245;51.282;22.494;2023-04-30T08:45:32;99144.06;;;9.97;96.61
75650;BME280;64245;51.282;22.494;2023-04-30T08:47:58;99125.94;;;9.90;96.24
75650;BME280;64245;51.282;22.494;2023-04-30T08:50:26;99141.78;;;9.93;96.19
75650;BME280;64245;51.282;22.494;2023-04-30T08:52:51;99152.50;;;10.02;96.61
75650;BME280;64245;51.282;22.494;2023-04-30T08:55:17;99150.41;;;9.96;96.57
75650;BME280;64245;51.282;22.494;2023-04-30T08:57:42;99146.31;;;9.92;96.58
75650;BME280;64245;51.282;22.494;2023-04-30T09:00:08;99142.91;;;9.90;95.95
75650;BME280;64245;51.282;22.494;2023-04-30T09:02:38;99168.66;;;10.02;96.59
75650;BME280;64245;51.282;22.494;2023-04-30T09:05:10;99155.38;;;9.91;96.35
75650;BME280;64245;51.282;22.494;2023-04-30T09:07:39;99170.09;;;9.87;96.46
75650;BME280;64245;51.282;22.494;2023-04-30T09:10:17;99175.75;;;9.84;97.70
75650;BME280;64245;51.282;22.494;2023-04-30T09:12:43;99171.81;;;9.98;96.91
75650;BME280;64245;51.282;22.494;2023-04-30T09:15:11;99183.28;;;10.00;96.08
75650;BME280;64245;51.282;22.494;2023-04-30T09:17:37;99174.19;;;9.82;96.98
75650;BME280;64245;51.282;22.494;2023-04-30T09:20:10;99174.66;;;9.77;97.01
75650;BME280;64245;51.282;22.494;2023-04-30T09:22:37;99164.72;;;9.87;97.68
75650;BME280;64245;51.282;22.494;2023-04-30T09:25:03;99192.91;;;9.93;96.58
75650;BME280;64245;51.282;22.494;2023-04-30T09:27:29;99188.38;;;9.93;97.54
75650;BME280;64245;51.282;22.494;2023-04-30T09:29:54;99176.31;;;9.88;97.10
75650;BME280;64245;51.282;22.494;2023-04-30T09:32:20;99175.19;;;10.00;97.42
75650;BME280;64245;51.282;22.494;2023-04-30T09:34:46;99185.38;;;10.25;97.21
75650;BME280;64245;51.282;22.494;2023-04-30T09:37:12;99188.19;;;10.14;96.91
75650;BME280;64245;51.282;22.494;2023-04-30T09:39:53;99181.00;;;9.95;97.31
75650;BME280;64245;51.282;22.494;2023-04-30T09:42:18;99202.50;;;10.05;97.54
75650;BME280;64245;51.282;22.494;2023-04-30T09:44:45;99203.50;;;9.85;97.11
75650;BME280;64245;51.282;22.494;2023-04-30T09:47:14;99194.59;;;9.84;97.08
75650;BME280;64245;51.282;22.494;2023-04-30T09:49:46;99214.13;;;10.15;95.06
75650;BME280;64245;51.282;22.494;2023-04-30T09:52:14;99189.06;;;9.95;95.77
75650;BME280;64245;51.282;22.494;2023-04-30T09:54:42;99200.25;;;10.00;97.26
75650;BME280;64245;51.282;22.494;2023-04-30T09:57:10;99211.72;;;10.22;94.94
75650;BME280;64245;51.282;22.494;2023-04-30T09:59:37;99215.34;;;10.50;93.76
75650;BME280;64245;51.282;22.494;2023-04-30T10:02:05;99207.16;;;10.79;93.23
75650;BME280;64245;51.282;22.494;2023-04-30T10:04:36;99204.16;;;10.45;89.93
75650;BME280;64245;51.282;22.494;2023-04-30T10:07:09;99206.16;;;10.43;90.33
75650;BME280;64245;51.282;22.494;2023-04-30T10:09:40;99220.47;;;10.80;89.47
75650;BME280;64245;51.282;22.494;2023-04-30T10:12:14;99213.53;;;10.78;87.28
75650;BME280;64245;51.282;22.494;2023-04-30T10:15:18;99223.47;;;11.14;84.99
75650;BME280;64245;51.282;22.494;2023-04-30T10:17:49;99226.00;;;11.43;85.55
75650;BME280;64245;51.282;22.494;2023-04-30T10:20:20;99182.72;;;11.17;83.26
75650;BME280;64245;51.282;22.494;2023-04-30T10:22:47;99191.88;;;11.69;83.51
75650;BME280;64245;51.282;22.494;2023-04-30T10:25:13;99185.97;;;11.84;81.37
75650;BME280;64245;51.282;22.494;2023-04-30T10:27:40;99215.69;;;11.74;80.80
75650;BME280;64245;51.282;22.494;2023-04-30T10:30:09;99192.47;;;12.17;81.80
75650;BME280;64245;51.282;22.494;2023-04-30T10:32:43;99204.44;;;12.92;79.41
75650;BME280;64245;51.282;22.494;2023-04-30T10:37:43;99199.78;;;13.10;76.27
75650;BME280;64245;51.282;22.494;2023-04-30T10:40:11;99218.72;;;13.44;74.33
75650;BME280;64245;51.282;22.494;2023-04-30T10:42:36;99217.38;;;13.14;77.75
75650;BME280;64245;51.282;22.494;2023-04-30T10:45:03;99209.25;;;13.06;77.10
75650;BME280;64245;51.282;22.494;2023-04-30T10:47:29;99224.50;;;12.81;73.66
75650;BME280;64245;51.282;22.494;2023-04-30T10:50:03;99210.88;;;12.65;76.03
75650;BME280;64245;51.282;22.494;2023-04-30T10:52:29;99209.38;;;12.70;76.32
75650;BME280;64245;51.282;22.494;2023-04-30T10:54:55;99216.81;;;12.68;77.11
75650;BME280;64245;51.282;22.494;2023-04-30T10:57:20;99212.22;;;12.61;75.14
75650;BME280;64245;51.282;22.494;2023-04-30T10:59:50;99205.88;;;13.54;75.33
75650;BME280;64245;51.282;22.494;2023-04-30T11:02:16;99205.78;;;14.37;69.56
75650;BME280;64245;51.282;22.494;2023-04-30T11:05:11;99203.25;;;14.35;69.37
75650;BME280;64245;51.282;22.494;2023-04-30T11:07:45;99207.81;;;14.35;67.36
75650;BME280;64245;51.282;22.494;2023-04-30T11:10:13;99201.53;;;14.26;66.88
75650;BME280;64245;51.282;22.494;2023-04-30T11:12:53;99182.50;;;14.91;66.96
75650;BME280;64245;51.282;22.494;2023-04-30T11:15:26;99184.50;;;15.67;67.14
75650;BME280;64245;51.282;22.494;2023-04-30T11:17:57;99188.88;;;16.74;62.43
75650;BME280;64245;51.282;22.494;2023-04-30T11:20:24;99184.91;;;16.24;58.60
75650;BME280;64245;51.282;22.494;2023-04-30T11:23:13;99202.66;;;15.67;60.01
75650;BME280;64245;51.282;22.494;2023-04-30T11:25:46;99193.97;;;16.17;58.87
75650;BME280;64245;51.282;22.494;2023-04-30T11:28:21;99191.09;;;15.73;59.73
75650;BME280;64245;51.282;22.494;2023-04-30T11:30:57;99167.09;;;15.53;59.71
75650;BME280;64245;51.282;22.494;2023-04-30T11:33:25;99170.50;;;16.01;57.88
75650;BME280;64245;51.282;22.494;2023-04-30T11:35:51;99173.91;;;17.44;54.41
75650;BME280;64245;51.282;22.494;2023-04-30T11:38:20;99173.00;;;18.37;53.63
75650;BME280;64245;51.282;22.494;2023-04-30T11:40:49;99168.53;;;16.70;52.00
75650;BME280;64245;51.282;22.494;2023-04-30T11:43:25;99185.75;;;17.51;52.88
75650;BME280;64245;51.282;22.494;2023-04-30T11:45:58;99183.19;;;17.64;51.85
75650;BME280;64245;51.282;22.494;2023-04-30T11:48:24;99193.13;;;17.93;49.69
75650;BME280;64245;51.282;22.494;2023-04-30T11:50:54;99185.81;;;16.17;54.08
75650;BME280;64245;51.282;22.494;2023-04-30T11:53:25;99181.06;;;16.19;52.95
75650;BME280;64245;51.282;22.494;2023-04-30T11:55:52;99172.78;;;17.38;50.46
75650;BME280;64245;51.282;22.494;2023-04-30T11:58:20;99192.63;;;18.75;49.26
75650;BME280;64245;51.282;22.494;2023-04-30T12:00:46;99188.91;;;17.90;47.65
75650;BME280;64245;51.282;22.494;2023-04-30T12:03:14;99194.25;;;16.59;51.13
75650;BME280;64245;51.282;22.494;2023-04-30T12:05:40;99195.00;;;18.14;47.37
75650;BME280;64245;51.282;22.494;2023-04-30T12:08:07;99179.00;;;17.32;48.87
75650;BME280;64245;51.282;22.494;2023-04-30T12:10:34;99195.53;;;17.81;48.43
75650;BME280;64245;51.282;22.494;2023-04-30T12:13:00;99199.59;;;17.05;49.13
75650;BME280;64245;51.282;22.494;2023-04-30T12:15:27;99200.91;;;16.42;48.46
75650;BME280;64245;51.282;22.494;2023-04-30T12:17:58;99201.56;;;17.62;46.96
75650;BME280;64245;51.282;22.494;2023-04-30T12:20:26;99198.00;;;18.40;45.55
75650;BME280;64245;51.282;22.494;2023-04-30T12:22:53;99195.69;;;19.34;41.51
75650;BME280;64245;51.282;22.494;2023-04-30T12:25:20;99192.91;;;19.27;43.37
75650;BME280;64245;51.282;22.494;2023-04-30T12:27:48;99196.06;;;18.83;44.39
75650;BME280;64245;51.282;22.494;2023-04-30T12:30:14;99202.88;;;17.30;47.03
75650;BME280;64245;51.282;22.494;2023-04-30T12:32:45;99199.00;;;16.80;48.56
75650;BME280;64245;51.282;22.494;2023-04-30T12:35:15;99185.25;;;16.44;49.33
75650;BME280;64245;51.282;22.494;2023-04-30T12:37:41;99213.28;;;16.45;49.95
75650;BME280;64245;51.282;22.494;2023-04-30T12:40:08;99210.50;;;16.53;50.56
75650;BME280;64245;51.282;22.494;2023-04-30T12:42:34;99203.06;;;16.47;49.09
75650;BME280;64245;51.282;22.494;2023-04-30T12:45:00;99206.31;;;16.05;50.22
75650;BME280;64245;51.282;22.494;2023-04-30T12:47:26;99190.84;;;16.28;49.19
75650;BME280;64245;51.282;22.494;2023-04-30T12:49:52;99202.94;;;16.40;49.77
75650;BME280;64245;51.282;22.494;2023-04-30T12:52:22;99204.19;;;17.05;47.63
75650;BME280;64245;51.282;22.494;2023-04-30T12:54:49;99211.38;;;16.08;48.48
75650;BME280;64245;51.282;22.494;2023-04-30T12:57:14;99202.91;;;15.80;49.29
75650;BME280;64245;51.282;22.494;2023-04-30T13:02:21;99194.91;;;14.77;51.95
75650;BME280;64245;51.282;22.494;2023-04-30T13:04:48;99212.66;;;14.88;52.64
75650;BME280;64245;51.282;22.494;2023-04-30T13:07:14;99208.75;;;14.82;52.60
75650;BME280;64245;51.282;22.494;2023-04-30T13:09:40;99207.34;;;16.04;47.42
75650;BME280;64245;51.282;22.494;2023-04-30T13:12:05;99208.22;;;17.09;45.84